PWSweather.com
Personal Weather Stations
Station Observations

VihtavuoriFI

Lat: 62.3670859, Lon: 25.9019003

Elevation: 324.8

Station Type: Davis Vantage PRO2 Aktiv

http://www.kapoweather.net/index.php

Latest ConditionsUpdated 11:15:00 AM GMT+02:02 Friday, Feb 22, 2019
Currently Today's Max Today's Min Today's Average
Temperature 8.4°F-13.1°C 11.2°F-11.6°C -2.9°F-19.4°C 2.8°F-16.2°C
Dew Point 6.1°F-14.4°C 6.8°F-14.0°C -6.3°F-21.3°C -0.5°F-18.1°C
Winds Calm Calm 1.0 mph -1.6 kmh - - 0.0 mph 0.0 kmh
Wind Gusts -- 7.0 mph11.3 kmh - -
Humidity 90% 90% 82% 86%
Pressure 30.75 in1041.3 mb 30.75 in1041.3 mb 30.56 in1034.9 mb -
Hour Temp Dew Point Humidity Winds Wind Gusts Pressure Precip Precip Rate Daily Precip Total
11:15 AM 8.4°F-13.1°C 6.1°F-14.4°C 90% Calm Calm -- 30.75 in1041.3 mb 0.00 in0.0 mm 0.00 in0.0 mm 0.00 in0.0 mm
11:00 AM 7.4°F-13.7°C 5.1°F-14.9°C 90% Calm Calm -- 30.75 in1041.3 mb 0.00 in0.0 mm 0.00 in0.0 mm 0.00 in0.0 mm
10:45 AM 5.7°F-14.6°C 3.2°F-16.0°C 89% Calm Calm -- 30.75 in1041.3 mb 0.00 in0.0 mm 0.00 in0.0 mm 0.00 in0.0 mm
10:30 AM 4.8°F-15.1°C 2.5°F-16.4°C 90% Calm Calm -- 30.75 in1041.3 mb 0.00 in0.0 mm 0.00 in0.0 mm 0.00 in0.0 mm
10:15 AM 3.3°F-15.9°C 0.8°F-17.3°C 89% Calm Calm 1.0 mph1.6 kmh 30.75 in1041.3 mb 0.00 in0.0 mm 0.00 in0.0 mm 0.00 in0.0 mm
10:00 AM 1.9°F-16.7°C -0.6°F-18.1°C 89% Calm Calm 1.0 mph1.6 kmh 30.75 in1041.3 mb 0.00 in0.0 mm 0.00 in0.0 mm 0.00 in0.0 mm
09:45 AM 0.7°F-17.4°C -1.8°F-18.8°C 89% Calm Calm -- 30.75 in1041.3 mb 0.00 in0.0 mm 0.00 in0.0 mm 0.00 in0.0 mm
09:30 AM -0.7°F-18.2°C -3.4°F-19.7°C 88% Calm Calm -- 30.74 in1041.0 mb 0.00 in0.0 mm 0.00 in0.0 mm 0.00 in0.0 mm
09:15 AM -1.9°F-18.8°C -4.8°F-20.4°C 87% Calm Calm -- 30.74 in1041.0 mb 0.00 in0.0 mm 0.00 in0.0 mm 0.00 in0.0 mm
09:00 AM -2.6°F-19.2°C -5.5°F-20.8°C 87% Calm Calm -- 30.74 in1041.0 mb 0.00 in0.0 mm 0.00 in0.0 mm 0.00 in0.0 mm
08:45 AM -2.9°F-19.4°C -6.3°F-21.3°C 85% Calm Calm -- 30.74 in1041.0 mb 0.00 in0.0 mm 0.00 in0.0 mm 0.00 in0.0 mm
08:30 AM -2.8°F-19.3°C -6.2°F-21.2°C 85% Calm Calm -- 30.73 in1040.6 mb 0.00 in0.0 mm 0.00 in0.0 mm 0.00 in0.0 mm
08:15 AM -2.7°F-19.3°C -6.1°F-21.2°C 85% Calm Calm -- 30.72 in1040.3 mb 0.00 in0.0 mm 0.00 in0.0 mm 0.00 in0.0 mm
08:00 AM -2.4°F-19.1°C -5.8°F-21.0°C 85% Calm Calm -- 30.72 in1040.3 mb 0.00 in0.0 mm 0.00 in0.0 mm 0.00 in0.0 mm
07:45 AM -2.3°F-19.1°C -5.7°F-20.9°C 85% Calm Calm -- 30.71 in1040.0 mb 0.00 in0.0 mm 0.00 in0.0 mm 0.00 in0.0 mm
07:30 AM -2.0°F-18.9°C -5.4°F-20.8°C 85% Calm Calm -- 30.71 in1040.0 mb 0.00 in0.0 mm 0.00 in0.0 mm 0.00 in0.0 mm
07:15 AM -1.8°F-18.8°C -5.2°F-20.7°C 85% Calm Calm -- 30.71 in1040.0 mb 0.00 in0.0 mm 0.00 in0.0 mm 0.00 in0.0 mm
07:00 AM -1.5°F-18.6°C -4.9°F-20.5°C 85% Calm Calm -- 30.70 in1039.6 mb 0.00 in0.0 mm 0.00 in0.0 mm 0.00 in0.0 mm
06:45 AM -1.2°F-18.4°C -4.6°F-20.3°C 85% Calm Calm -- 30.69 in1039.3 mb 0.00 in0.0 mm 0.00 in0.0 mm 0.00 in0.0 mm
06:30 AM -1.0°F-18.3°C -4.4°F-20.2°C 85% Calm Calm -- 30.69 in1039.3 mb 0.00 in0.0 mm 0.00 in0.0 mm 0.00 in0.0 mm
06:15 AM -0.8°F-18.2°C -4.2°F-20.1°C 85% Calm Calm -- 30.68 in1038.9 mb 0.00 in0.0 mm 0.00 in0.0 mm 0.00 in0.0 mm
06:00 AM -0.5°F-18.1°C -3.9°F-19.9°C 85% Calm Calm -- 30.68 in1038.9 mb 0.00 in0.0 mm 0.00 in0.0 mm 0.00 in0.0 mm
05:45 AM -0.1°F-17.8°C -3.5°F-19.7°C 85% Calm Calm -- 30.68 in1038.9 mb 0.00 in0.0 mm 0.00 in0.0 mm 0.00 in0.0 mm
05:30 AM 0.2°F-17.7°C -3.0°F-19.4°C 86% Calm Calm -- 30.68 in1038.9 mb 0.00 in0.0 mm 0.00 in0.0 mm 0.00 in0.0 mm
05:15 AM 0.4°F-17.6°C -2.8°F-19.3°C 86% Calm Calm -- 30.67 in1038.6 mb 0.00 in0.0 mm 0.00 in0.0 mm 0.00 in0.0 mm
05:00 AM 1.0°F-17.2°C -2.5°F-19.2°C 85% Calm Calm -- 30.66 in1038.3 mb 0.00 in0.0 mm 0.00 in0.0 mm 0.00 in0.0 mm
04:45 AM 1.6°F-16.9°C -1.6°F-18.7°C 86% Calm Calm -- 30.66 in1038.3 mb 0.00 in0.0 mm 0.00 in0.0 mm 0.00 in0.0 mm
04:30 AM 1.9°F-16.7°C -1.3°F-18.5°C 86% Calm Calm -- 30.66 in1038.3 mb 0.00 in0.0 mm 0.00 in0.0 mm 0.00 in0.0 mm
04:15 AM 2.2°F-16.6°C -1.0°F-18.3°C 86% Calm Calm -- 30.65 in1037.9 mb 0.00 in0.0 mm 0.00 in0.0 mm 0.00 in0.0 mm
04:00 AM 2.7°F-16.3°C -0.5°F-18.1°C 86% Calm Calm -- 30.64 in1037.6 mb 0.00 in0.0 mm 0.00 in0.0 mm 0.00 in0.0 mm
03:45 AM 3.1°F-16.1°C -0.1°F-17.8°C 86% Calm Calm -- 30.64 in1037.6 mb 0.00 in0.0 mm 0.00 in0.0 mm 0.00 in0.0 mm
03:30 AM 3.6°F-15.8°C 0.1°F-17.7°C 85% Calm Calm -- 30.63 in1037.3 mb 0.00 in0.0 mm 0.00 in0.0 mm 0.00 in0.0 mm
03:15 AM 4.1°F-15.5°C 0.6°F-17.4°C 85% Calm Calm -- 30.63 in1037.3 mb 0.00 in0.0 mm 0.00 in0.0 mm 0.00 in0.0 mm
03:00 AM 4.6°F-15.2°C 1.1°F-17.2°C 85% Calm Calm -- 30.61 in1036.6 mb 0.00 in0.0 mm 0.00 in0.0 mm 0.00 in0.0 mm
02:45 AM 5.3°F-14.8°C 1.8°F-16.8°C 85% Calm Calm -- 30.61 in1036.6 mb 0.00 in0.0 mm 0.00 in0.0 mm 0.00 in0.0 mm
02:30 AM 5.9°F-14.5°C 2.4°F-16.4°C 85% Calm Calm -- 30.61 in1036.6 mb 0.00 in0.0 mm 0.00 in0.0 mm 0.00 in0.0 mm
02:15 AM 6.4°F-14.2°C 2.9°F-16.2°C 85% Calm Calm -- 30.61 in1036.6 mb 0.00 in0.0 mm 0.00 in0.0 mm 0.00 in0.0 mm
02:00 AM 7.1°F-13.8°C 3.5°F-15.8°C 85% Calm Calm -- 30.59 in1035.9 mb 0.00 in0.0 mm 0.00 in0.0 mm 0.00 in0.0 mm
01:45 AM 7.7°F-13.5°C 4.1°F-15.5°C 85% Calm Calm -- 30.59 in1035.9 mb 0.00 in0.0 mm 0.00 in0.0 mm 0.00 in0.0 mm
01:30 AM 8.1°F-13.3°C 4.5°F-15.3°C 85% Calm Calm -- 30.58 in1035.6 mb 0.00 in0.0 mm 0.00 in0.0 mm 0.00 in0.0 mm
01:15 AM 8.5°F-13.1°C 4.7°F-15.2°C 84% Calm Calm -- 30.58 in1035.6 mb 0.00 in0.0 mm 0.00 in0.0 mm 0.00 in0.0 mm
01:00 AM 8.9°F-12.8°C 5.1°F-14.9°C 84% Calm Calm 1.0 mph1.6 kmh 30.57 in1035.2 mb 0.00 in0.0 mm 0.00 in0.0 mm 0.00 in0.0 mm
12:45 AM 9.5°F-12.5°C 5.4°F-14.8°C 83% Calm Calm 2.0 mph3.2 kmh 30.57 in1035.2 mb 0.00 in0.0 mm 0.00 in0.0 mm 0.00 in0.0 mm
12:30 AM 10.3°F-12.1°C 5.9°F-14.5°C 82% Calm Calm 2.0 mph3.2 kmh 30.56 in1034.9 mb 0.00 in0.0 mm 0.00 in0.0 mm 0.00 in0.0 mm
12:15 AM 10.9°F-11.7°C 6.8°F-14.0°C 83% 1.0 mph NW1.6 kmh NW 5.0 mph8.0 kmh 30.56 in1034.9 mb 0.00 in0.0 mm 0.00 in0.0 mm 0.00 in0.0 mm
12:00 AM 11.2°F-11.6°C 6.8°F-14.0°C 82% 1.0 mph NW1.6 kmh NW 7.0 mph11.3 kmh 30.56 in1034.9 mb 0.00 in0.0 mm 0.00 in0.0 mm 0.00 in0.0 mm